South Elmsall, United Kingdom
Current Conditions -  °F | °C
As of 7:20 AM on Friday 31 Oct 2014 (Local Time) from EGCN Reporting Station
Haze Haze  
Wind Chill: 61°   Ceiling: 1500
Heat Index: 61°   Visibility: 3mi
Dew Point: 57°   Wind: 10mph
Humidity: 88%   Direction: 160°SSE
Pressure: 29.97"   Gusts: NA
Location:  53.6°N, 1.28°W
Report Text: EGCN 310720Z 16009KT 5000 HZ BKN015 16/14 Q1015
Loading
Personal Weather Stations






























Interactive Weather Map
Tropical Storm Tracking
New forecast layout! Learn more

10-Day Weather Forecast

Advertisements
Track Severe Weather on mobile